Bookmark and Share
Track history (hours):
 

Al Cenac

More information available from US FCC via Universal Licensing System and Coast Guard Vessel Documentation Center.

Last reported at 2014-Apr-20 20:30 UTC. Time now 2014-Apr-20 21:11 UTC.
Position N 40°38' W 074°08'.

; draft 10 m.

MMSI: 367158530.

NotesDate/timePositionNaut miles runAvg speedWind from/ knotsBaromVisibWave heightAir tempDewpointWater temp
2014-Apr-20 20:30N 40°38' W 074°08'0 0.0
2014-Apr-20 19:19N 40°38' W 074°08'0 0.0
2014-Apr-20 18:31N 40°38' W 074°08'0 0.0
2014-Apr-20 17:32N 40°38' W 074°08'0 0.0
2014-Apr-20 16:32N 40°38' W 074°08'0 0.0
2014-Apr-20 15:27N 40°38' W 074°08'0 0.0
2014-Apr-20 14:28N 40°38' W 074°08'0 0.0
2014-Apr-20 13:17N 40°38' W 074°08'0 0.6
2014-Apr-20 12:33N 40°39' W 074°08'0 0.2
2014-Apr-20 09:33N 40°39' W 074°09'5 4.6
2014-Apr-20 08:33N 40°38' W 074°03'4 3.3
2014-Apr-20 07:26N 40°38' W 074°08'0 0.0
2014-Apr-20 06:32N 40°38' W 074°08'0 0.0
2014-Apr-20 05:03N 40°38' W 074°08'0 0.0
2014-Apr-20 04:22N 40°38' W 074°08'0 0.0
2014-Apr-20 03:28N 40°38' W 074°08'0 0.0
2014-Apr-20 00:22N 40°38' W 074°08'0 0.0
2014-Apr-19 23:16N 40°38' W 074°08'0 0.0
2014-Apr-19 22:29N 40°38' W 074°08'0 0.0
2014-Apr-19 20:27N 40°38' W 074°08'0 0.0
2014-Apr-19 19:07N 40°38' W 074°08'0 0.0
2014-Apr-19 18:28N 40°38' W 074°08'0 0.0
2014-Apr-19 17:23N 40°38' W 074°08'0 0.0
2014-Apr-19 13:11N 40°38' W 074°08'0 0.0
2014-Apr-19 12:11N 40°38' W 074°08'0 0.0
2014-Apr-19 11:33N 40°38' W 074°08'0 0.0
2014-Apr-19 10:25N 40°38' W 074°08'0 0.0
2014-Apr-19 09:31N 40°38' W 074°08'0 0.0
2014-Apr-19 08:32N 40°38' W 074°08'0 0.0
2014-Apr-19 07:32N 40°38' W 074°08'0 0.0
2014-Apr-19 06:27N 40°38' W 074°08'0 0.0
2014-Apr-19 04:31N 40°38' W 074°08'0 0.0
2014-Apr-19 03:26N 40°38' W 074°08'0 0.0
2014-Apr-19 02:30N 40°38' W 074°08'0 0.0
2014-Apr-19 00:31N 40°38' W 074°08'3 2.6
2014-Apr-18 23:32N 40°39' W 074°11'1 1.3
2014-Apr-18 22:33N 40°39' W 074°10'1 1.1
2014-Apr-18 21:24N 40°38' W 074°08'0 0.0
2014-Apr-18 20:31N 40°38' W 074°08'0 0.0
2014-Apr-18 19:20N 40°38' W 074°08'3 1.5
2014-Apr-18 17:14N 40°38' W 074°12'3 4.3
2014-Apr-18 16:30N 40°38' W 074°08'0 0.0
2014-Apr-18 15:13N 40°38' W 074°08'0 0.0
2014-Apr-18 14:31N 40°38' W 074°08'4 3.9
2014-Apr-18 13:30N 40°43' W 074°07'0 0.3
2014-Apr-18 12:28N 40°43' W 074°07'0 0.0
2014-Apr-18 11:32N 40°43' W 074°07'2 1.8
2014-Apr-18 10:33N 40°41' W 074°08'0 0.0
2014-Apr-18 09:33N 40°41' W 074°08'0 0.0
2014-Apr-18 08:31N 40°41' W 074°08'0 0.0
2014-Apr-18 07:32N 40°41' W 074°08'0 0.0
2014-Apr-18 06:32N 40°41' W 074°08'0 0.0
2014-Apr-18 05:33N 40°41' W 074°08'1 0.6
2014-Apr-18 04:33N 40°41' W 074°08'1 1.2
2014-Apr-18 03:32N 40°40' W 074°08'2 2.2
2014-Apr-18 02:33N 40°38' W 074°09'0 0.3
2014-Apr-18 01:33N 40°39' W 074°10'0 0.0
2014-Apr-18 00:33N 40°39' W 074°10'0 0.0
2014-Apr-17 23:31N 40°39' W 074°10'0 0.0
2014-Apr-17 22:32N 40°39' W 074°10'2 0.3
2014-Apr-17 17:29N 40°38' W 074°12'3 2.7
2014-Apr-17 16:21N 40°38' W 074°08'0 0.0
2014-Apr-17 15:16N 40°38' W 074°08'0 0.0
2014-Apr-17 14:31N 40°38' W 074°08'0 0.0
2014-Apr-17 13:26N 40°38' W 074°08'0 0.0
2014-Apr-17 12:26N 40°38' W 074°08'0 0.0
2014-Apr-17 11:21N 40°38' W 074°08'0 0.0
2014-Apr-17 10:28N 40°38' W 074°08'0 0.0
2014-Apr-17 09:31N 40°38' W 074°08'0 0.0
2014-Apr-17 08:32N 40°38' W 074°08'0 0.0
2014-Apr-17 07:33N 40°38' W 074°08'0 0.0
2014-Apr-17 06:27N 40°38' W 074°08'0 0.0
2014-Apr-17 05:28N 40°38' W 074°08'0 0.0
2014-Apr-17 04:32N 40°38' W 074°08'0 0.0
2014-Apr-17 03:32N 40°38' W 074°08'4 4.4
2014-Apr-17 02:32N 40°36' W 074°12'3 2.3
2014-Apr-17 01:14N 40°38' W 074°11'1 2.1
2014-Apr-17 00:33N 40°38' W 074°09'1 1.0
2014-Apr-16 23:16N 40°38' W 074°08'0 0.0
2014-Apr-16 22:28N 40°38' W 074°08'3 2.3
2014-Apr-16 21:04N 40°38' W 074°12'3 4.9
2014-Apr-16 20:26N 40°38' W 074°08'0 0.0
2014-Apr-16 19:29N 40°38' W 074°08'0 0.0
2014-Apr-16 18:29N 40°38' W 074°08'0 0.0
2014-Apr-16 17:18N 40°38' W 074°08'0 0.0
2014-Apr-16 16:13N 40°38' W 074°08'0 0.0
2014-Apr-16 15:28N 40°38' W 074°08'1 1.3
2014-Apr-16 14:32N 40°38' W 074°09'1 0.3
2014-Apr-16 10:29N 40°38' W 074°08'0 0.0
2014-Apr-16 09:06N 40°38' W 074°08'0 0.0
2014-Apr-16 08:30N 40°38' W 074°08'0 0.0
2014-Apr-16 07:25N 40°38' W 074°08'0 0.0
2014-Apr-16 06:07N 40°38' W 074°08'0 0.0
2014-Apr-16 05:20N 40°38' W 074°08'0 0.0
2014-Apr-16 04:12N 40°38' W 074°08'0 0.0
2014-Apr-16 03:27N 40°38' W 074°08'0 0.0
2014-Apr-16 02:10N 40°38' W 074°08'0 0.0
2014-Apr-16 01:29N 40°38' W 074°08'0 0.0
2014-Apr-16 00:29N 40°38' W 074°08'4 1.7
2014-Apr-15 22:04N 40°43' W 074°07'3 5.5
2014-Apr-15 21:33N 40°40' W 074°08'6 4.0
2014-Apr-15 20:07N 40°35' W 074°13'4 2.8
2014-Apr-15 18:33N 40°39' W 074°10'1 0.6
2014-Apr-15 16:33N 40°39' W 074°08'0 0.1
2014-Apr-15 15:31N 40°38' W 074°08'2 1.7
2014-Apr-15 14:33N 40°40' W 074°08'1 0.3
2014-Apr-15 12:34N 40°40' W 074°08'2 1.8
2014-Apr-15 11:33N 40°39' W 074°07'1 0.7
2014-Apr-15 10:31N 40°38' W 074°08'0 0.0
2014-Apr-15 06:30N 40°38' W 074°08'0 0.0
2014-Apr-14 22:30N 40°38' W 074°08'1 0.2
2014-Apr-14 18:33N 40°39' W 074°07'1 0.4
2014-Apr-14 16:33N 40°38' W 074°08'0 0.0
2014-Apr-14 15:33N 40°38' W 074°08'0 0.0
2014-Apr-14 14:31N 40°38' W 074°08'0 0.0
2014-Apr-14 11:29N 40°38' W 074°08'0 0.0
2014-Apr-13 22:17N 40°38' W 074°08'3 0.4
2014-Apr-13 13:16N 40°38' W 074°12'3 1.8
2014-Apr-13 11:31N 40°38' W 074°08'0 0.0
2014-Apr-13 10:06N 40°38' W 074°08'0 0.0
2014-Apr-13 09:22N 40°38' W 074°08'0 0.0
2014-Apr-13 08:31N 40°38' W 074°08'0 0.0
2014-Apr-13 07:26N 40°38' W 074°08'0 0.0
2014-Apr-13 06:33N 40°38' W 074°08'0 0.0
2014-Apr-13 05:33N 40°38' W 074°08'0 0.0
2014-Apr-13 04:22N 40°38' W 074°08'0 0.0
2014-Apr-13 03:29N 40°38' W 074°08'0 0.0
2014-Apr-13 02:11N 40°38' W 074°08'0 0.0
2014-Apr-13 01:33N 40°38' W 074°08'0 0.0
2014-Apr-13 00:31N 40°38' W 074°08'0 0.0
2014-Apr-12 23:31N 40°38' W 074°08'0 0.0
2014-Apr-12 22:32N 40°38' W 074°08'2 1.9
2014-Apr-12 21:31N 40°39' W 074°10'1 0.5
2014-Apr-12 19:09N 40°38' W 074°12'3 4.9
2014-Apr-12 18:32N 40°38' W 074°08'0 0.0
2014-Apr-12 17:33N 40°38' W 074°08'0 0.0
2014-Apr-12 16:33N 40°38' W 074°08'2 2.4
2014-Apr-12 15:33N 40°39' W 074°11'3 2.2
2014-Apr-12 14:13N 40°36' W 074°12'4 4.7
2014-Apr-12 13:28N 40°38' W 074°09'5 5.2
2014-Apr-12 12:33N 40°39' W 074°03'0 0.0
2014-Apr-12 11:31N 40°39' W 074°03'0 0.0
2014-Apr-12 10:33N 40°39' W 074°03'2 1.5
2014-Apr-12 09:03N 40°39' W 074°06'0 0.0
2014-Apr-12 08:10N 40°39' W 074°06'0 0.0
2014-Apr-12 07:28N 40°39' W 074°06'0 0.0
2014-Apr-12 06:08N 40°39' W 074°06'2 3.7
2014-Apr-12 05:31N 40°37' W 074°03'3 3.0
2014-Apr-12 04:33N 40°39' W 074°07'0 0.5
2014-Apr-12 03:32N 40°39' W 074°07'0 0.0
2014-Apr-12 02:33N 40°39' W 074°07'0 0.0
2014-Apr-12 01:15N 40°39' W 074°07'5 6.8
2014-Apr-12 00:34N 40°41' W 074°02'8 7.5
2014-Apr-11 23:33N 40°47' W 073°56'2 1.9
2014-Apr-11 22:33N 40°45' W 073°57'10 9.9
2014-Apr-11 21:33N 40°39' W 074°07'4 1.4
2014-Apr-11 19:07N 40°38' W 074°12'3 4.2
2014-Apr-11 18:28N 40°38' W 074°08'0 0.0
2014-Apr-11 17:16N 40°38' W 074°08'0 0.0
2014-Apr-11 16:29N 40°38' W 074°08'0 0.0
2014-Apr-11 15:24N 40°38' W 074°08'0 0.0
2014-Apr-11 14:30N 40°38' W 074°08'0 0.0
2014-Apr-11 13:19N 40°38' W 074°08'0 0.0
2014-Apr-11 12:31N 40°38' W 074°08'0 0.0
2014-Apr-11 11:33N 40°38' W 074°08'1 1.1
2014-Apr-11 10:32N 40°39' W 074°07'1 0.7
2014-Apr-11 09:33N 40°39' W 074°06'2 1.5
2014-Apr-11 08:29N 40°38' W 074°08'0 0.0
2014-Apr-11 07:29N 40°38' W 074°08'0 0.0
2014-Apr-11 06:30N 40°38' W 074°08'0 0.0
2014-Apr-11 04:31N 40°38' W 074°08'0 0.0
2014-Apr-11 02:33N 40°38' W 074°08'0 0.0
2014-Apr-11 01:21N 40°38' W 074°08'0 0.0
2014-Apr-10 23:22N 40°38' W 074°08'0 0.0
2014-Apr-10 22:29N 40°38' W 074°08'  

Dump ship's entire track history

sailing weather and tide predictions

Al Cenac — WDD5445 — position and weather